Time;durP1;ratioP1;P1;durP2;ratioP2;P2;SDS_P1;SDS_P2;PMS_P1;PMS_P2;Temp;Humidity;BMP_temperature;BMP_pressure;BME280_temperature;BME280_humidity;BME280_pressure;Samples;Min_cycle;Max_cycle;Signal;HPM_P1;HPM_P2
2023/12/30 00:01:46;;;;;;;1999.90;999.90;;;6.00;94.40;;;;;;5042159;28;20438;-77
2023/12/30 00:04:13;;;;;;;1999.90;999.90;;;6.00;93.90;;;;;;5043500;28;20064;-76
2023/12/30 00:06:39;;;;;;;1999.90;999.90;;;6.00;94.10;;;;;;5042251;28;20057;-78
2023/12/30 00:09:05;;;;;;;1999.90;999.90;;;6.00;94.10;;;;;;5045832;28;20036;-77
2023/12/30 00:11:31;;;;;;;1999.90;999.90;;;6.00;94.00;;;;;;5045479;28;20033;-78
2023/12/30 00:13:57;;;;;;;1999.90;999.90;;;6.10;93.90;;;;;;5044884;28;20052;-75
2023/12/30 00:16:22;;;;;;;1999.90;999.90;;;6.10;93.70;;;;;;5048391;28;20056;-77
2023/12/30 00:18:48;;;;;;;1999.90;999.90;;;6.10;93.60;;;;;;5044522;28;20028;-77
2023/12/30 00:21:21;;;;;;;1999.90;999.90;;;6.20;93.50;;;;;;5045471;28;20040;-77
2023/12/30 00:23:47;;;;;;;1999.90;999.90;;;6.10;93.40;;;;;;5047515;28;20033;-78
2023/12/30 00:26:23;;;;;;;1999.90;999.90;;;6.30;93.30;;;;;;5047470;28;20107;-77
2023/12/30 00:28:50;;;;;;;1999.90;999.90;;;6.30;92.90;;;;;;5042671;28;20021;-75
2023/12/30 00:31:28;;;;;;;1999.90;999.90;;;6.40;92.40;;;;;;5055289;28;20017;-77
2023/12/30 00:33:59;;;;;;;1999.90;999.90;;;6.30;92.40;;;;;;5065071;28;20036;-79
2023/12/30 00:36:26;;;;;;;1999.90;999.90;;;6.30;92.30;;;;;;5046581;28;20038;-77
2023/12/30 00:38:54;;;;;;;1999.90;999.90;;;6.20;92.30;;;;;;5043315;28;20102;-77
2023/12/30 00:41:27;;;;;;;1999.90;999.90;;;6.20;92.30;;;;;;5046092;28;20021;-78
2023/12/30 00:43:53;;;;;;;1999.90;999.90;;;6.20;92.40;;;;;;5044888;28;20438;-78
2023/12/30 00:46:19;;;;;;;1999.90;999.90;;;6.20;92.10;;;;;;5046722;28;20787;-77
2023/12/30 00:48:46;;;;;;;1999.90;999.90;;;6.40;91.90;;;;;;5046793;28;20029;-78
2023/12/30 00:51:12;;;;;;;1999.90;999.90;;;6.30;91.80;;;;;;5041920;28;20055;-76
2023/12/30 00:53:37;;;;;;;1999.90;999.90;;;6.40;91.70;;;;;;5043647;28;20038;-78
2023/12/30 00:56:03;;;;;;;1999.90;999.90;;;6.40;91.50;;;;;;5042576;28;20533;-76
2023/12/30 00:58:29;;;;;;;1999.90;999.90;;;6.20;91.80;;;;;;5044152;28;20495;-76
2023/12/30 01:00:54;;;;;;;1999.90;999.90;;;6.30;91.70;;;;;;5046125;28;20025;-76
2023/12/30 01:03:20;;;;;;;1999.90;999.90;;;6.20;91.70;;;;;;5041906;28;20025;-75
2023/12/30 01:05:46;;;;;;;1999.90;999.90;;;6.20;91.90;;;;;;5042295;28;20029;-75
2023/12/30 01:08:12;;;;;;;1999.90;999.90;;;6.20;92.00;;;;;;5039283;28;20450;-77
2023/12/30 01:10:38;;;;;;;1999.90;999.90;;;6.20;91.70;;;;;;5042330;28;20150;-78
2023/12/30 01:13:08;;;;;;;1999.90;999.90;;;6.10;92.00;;;;;;5038925;28;20021;-77
2023/12/30 01:15:34;;;;;;;1999.90;999.90;;;6.20;92.00;;;;;;5039562;28;20059;-75
2023/12/30 01:18:01;;;;;;;1999.90;999.90;;;6.10;91.70;;;;;;5042079;28;20018;-75
2023/12/30 01:20:27;;;;;;;1999.90;999.90;;;6.10;92.00;;;;;;5041846;28;20021;-76
2023/12/30 01:22:53;;;;;;;1999.90;999.90;;;6.00;91.80;;;;;;5041897;28;20567;-75
2023/12/30 01:25:19;;;;;;;1999.90;999.90;;;5.90;91.80;;;;;;5026186;28;20028;-77
2023/12/30 01:27:45;;;;;;;1999.90;999.90;;;6.10;91.80;;;;;;5042667;28;20034;-75
2023/12/30 01:30:11;;;;;;;1999.90;999.90;;;6.00;91.80;;;;;;5042562;28;20032;-74
2023/12/30 01:32:36;;;;;;;1999.90;999.90;;;6.20;91.60;;;;;;5039400;28;20459;-76
2023/12/30 01:35:03;;;;;;;1999.90;999.90;;;6.10;91.40;;;;;;5040632;28;20071;-75
2023/12/30 01:37:29;;;;;;;1999.90;999.90;;;6.10;91.30;;;;;;5036972;28;20039;-80
2023/12/30 01:39:55;;;;;;;1999.90;999.90;;;6.10;91.10;;;;;;5041696;28;20031;-76
2023/12/30 01:42:20;;;;;;;1999.90;999.90;;;6.10;90.90;;;;;;5039347;28;20568;-76
2023/12/30 01:44:46;;;;;;;1999.90;999.90;;;6.30;90.40;;;;;;5041003;28;20056;-77
2023/12/30 01:47:12;;;;;;;1999.90;999.90;;;6.20;90.20;;;;;;5040266;28;20483;-81
2023/12/30 01:49:38;;;;;;;1999.90;999.90;;;6.20;89.80;;;;;;5035726;28;20076;-76
2023/12/30 01:52:07;;;;;;;1999.90;999.90;;;6.10;90.00;;;;;;5041303;28;20029;-78
2023/12/30 01:54:33;;;;;;;1999.90;999.90;;;6.10;89.80;;;;;;5040826;28;20037;-78
2023/12/30 01:57:02;;;;;;;1999.90;999.90;;;6.10;88.60;;;;;;5043925;28;20494;-79
2023/12/30 01:59:30;;;;;;;1999.90;999.90;;;6.10;88.10;;;;;;5041441;28;20128;-76
2023/12/30 02:01:56;;;;;;;1999.90;999.90;;;6.20;87.20;;;;;;5041239;28;20036;-76
2023/12/30 02:04:24;;;;;;;1999.90;999.90;;;6.20;87.00;;;;;;5041010;28;20045;-76
2023/12/30 02:06:50;;;;;;;1999.90;999.90;;;6.10;86.30;;;;;;5044702;28;20041;-77
2023/12/30 02:09:16;;;;;;;1999.90;999.90;;;6.10;86.40;;;;;;5038407;28;20032;-77
2023/12/30 02:11:42;;;;;;;1999.90;999.90;;;6.10;85.70;;;;;;5039383;28;20029;-79
2023/12/30 02:14:28;;;;;;;1999.90;999.90;;;6.00;85.70;;;;;;5041150;28;20049;-76
2023/12/30 02:16:54;;;;;;;1999.90;999.90;;;6.10;85.70;;;;;;5037509;28;20144;-77
2023/12/30 02:19:19;;;;;;;1999.90;999.90;;;6.00;85.20;;;;;;5043650;28;20104;-79
2023/12/30 02:21:45;;;;;;;1999.90;999.90;;;6.00;85.40;;;;;;5037774;28;20371;-75
2023/12/30 02:24:11;;;;;;;1999.90;999.90;;;6.00;85.70;;;;;;5043063;28;20033;-75
2023/12/30 02:26:38;;;;;;;1999.90;999.90;;;6.10;85.40;;;;;;5047414;28;20036;-75
2023/12/30 02:29:04;;;;;;;1999.90;999.90;;;5.90;85.60;;;;;;5057870;28;20025;-77
2023/12/30 02:31:30;;;;;;;1999.90;999.90;;;5.80;85.80;;;;;;5054501;28;20031;-78
2023/12/30 02:33:55;;;;;;;1999.90;999.90;;;5.80;85.80;;;;;;5024183;28;20147;-76
2023/12/30 02:36:21;;;;;;;1999.90;999.90;;;5.80;85.90;;;;;;5040879;28;20084;-76
2023/12/30 02:38:47;;;;;;;1999.90;999.90;;;6.00;85.40;;;;;;5042181;28;20068;-76
2023/12/30 02:41:13;;;;;;;1999.90;999.90;;;6.00;85.60;;;;;;5038228;28;20029;-76
2023/12/30 02:44:00;;;;;;;1999.90;999.90;;;6.10;85.00;;;;;;5038818;28;20044;-75
2023/12/30 02:46:26;;;;;;;1999.90;999.90;;;6.10;84.90;;;;;;5043442;28;20033;-76
2023/12/30 02:48:51;;;;;;;1999.90;999.90;;;6.10;84.50;;;;;;5039837;28;20036;-77
2023/12/30 02:51:18;;;;;;;1999.90;999.90;;;6.00;84.90;;;;;;5043788;28;20083;-76
2023/12/30 02:53:44;;;;;;;1999.90;999.90;;;6.00;85.10;;;;;;5042118;28;20029;-75
2023/12/30 02:56:23;;;;;;;1999.90;999.90;;;6.10;84.40;;;;;;5041401;28;20122;-78
2023/12/30 02:58:57;;;;;;;1999.90;999.90;;;6.10;84.20;;;;;;5041640;28;20727;-75
2023/12/30 03:01:25;;;;;;;1999.90;999.90;;;6.00;84.20;;;;;;5042487;28;20035;-77
2023/12/30 03:03:56;;;;;;;1999.90;999.90;;;5.90;84.70;;;;;;5040660;28;20029;-75
2023/12/30 03:06:23;;;;;;;1999.90;999.90;;;6.00;84.30;;;;;;5042419;28;20587;-76
2023/12/30 03:08:49;;;;;;;1999.90;999.90;;;5.90;84.70;;;;;;5038725;28;20036;-77
2023/12/30 03:11:15;;;;;;;1999.90;999.90;;;5.90;84.90;;;;;;5042425;28;20041;-76
2023/12/30 03:13:41;;;;;;;1999.90;999.90;;;5.90;84.40;;;;;;5040665;28;20124;-76
2023/12/30 03:16:07;;;;;;;1999.90;999.90;;;6.00;84.30;;;;;;5042814;28;20651;-75
2023/12/30 03:18:33;;;;;;;1999.90;999.90;;;5.90;84.60;;;;;;5037457;28;20518;-77
2023/12/30 03:20:59;;;;;;;1999.90;999.90;;;5.90;84.50;;;;;;5041693;28;20068;-78
2023/12/30 03:23:24;;;;;;;1999.90;999.90;;;5.80;84.90;;;;;;5037269;28;20483;-75
2023/12/30 03:25:51;;;;;;;1999.90;999.90;;;5.90;84.70;;;;;;5038906;28;20041;-76
2023/12/30 03:28:17;;;;;;;1999.90;999.90;;;5.80;84.60;;;;;;5042679;28;20578;-76
2023/12/30 03:30:44;;;;;;;1999.90;999.90;;;5.80;85.40;;;;;;5037626;28;20033;-77
2023/12/30 03:33:09;;;;;;;1999.90;999.90;;;5.60;85.60;;;;;;5041957;28;20036;-76
2023/12/30 03:35:35;;;;;;;1999.90;999.90;;;5.60;86.30;;;;;;5043777;28;20032;-75
2023/12/30 03:38:02;;;;;;;1999.90;999.90;;;5.60;86.70;;;;;;5058729;28;20037;-78
2023/12/30 03:40:31;;;;;;;1999.90;999.90;;;5.50;86.90;;;;;;5045318;28;20525;-76
2023/12/30 03:42:56;;;;;;;1999.90;999.90;;;5.60;86.80;;;;;;5045684;28;20079;-77
2023/12/30 03:45:22;;;;;;;1999.90;999.90;;;5.60;86.60;;;;;;5042036;28;20801;-77
2023/12/30 03:47:48;;;;;;;1999.90;999.90;;;5.50;86.00;;;;;;5041442;28;20066;-76
2023/12/30 03:50:13;;;;;;;1999.90;999.90;;;5.60;86.50;;;;;;5046866;28;20045;-76
2023/12/30 03:52:39;;;;;;;1999.90;999.90;;;5.60;86.50;;;;;;5045116;28;20029;-76
2023/12/30 03:55:08;;;;;;;1999.90;999.90;;;5.60;86.40;;;;;;5044927;28;20103;-76
2023/12/30 03:57:33;;;;;;;1999.90;999.90;;;5.60;86.60;;;;;;5044956;28;20045;-77
2023/12/30 04:00:03;;;;;;;1999.90;999.90;;;5.50;86.50;;;;;;5044466;28;20387;-78
2023/12/30 04:02:28;;;;;;;1999.90;999.90;;;5.60;86.30;;;;;;5027931;28;20075;-76
2023/12/30 04:04:54;;;;;;;1999.90;999.90;;;5.60;86.20;;;;;;5047260;28;20461;-77
2023/12/30 04:07:20;;;;;;;1999.90;999.90;;;5.60;86.10;;;;;;5045619;28;20033;-78
2023/12/30 04:09:45;;;;;;;1999.90;999.90;;;5.50;86.60;;;;;;5039484;28;20503;-78
2023/12/30 04:12:11;;;;;;;1999.90;999.90;;;5.70;86.40;;;;;;5038713;28;20135;-76
2023/12/30 04:14:37;;;;;;;1999.90;999.90;;;5.60;86.20;;;;;;5044399;28;20090;-77
2023/12/30 04:17:03;;;;;;;1999.90;999.90;;;5.70;86.40;;;;;;5042578;28;20037;-75
2023/12/30 04:19:28;;;;;;;1999.90;999.90;;;5.90;85.80;;;;;;5045958;28;20056;-76
2023/12/30 04:21:54;;;;;;;1999.90;999.90;;;6.00;85.30;;;;;;5041351;28;20044;-75
2023/12/30 04:24:19;;;;;;;1999.90;999.90;;;6.10;85.20;;;;;;5042248;28;20126;-75
2023/12/30 04:26:45;;;;;;;1999.90;999.90;;;6.10;84.90;;;;;;5042887;28;20103;-75
2023/12/30 04:29:11;;;;;;;1999.90;999.90;;;6.20;84.80;;;;;;5050392;28;20093;-76
2023/12/30 04:31:36;;;;;;;1999.90;999.90;;;6.20;84.50;;;;;;5042652;28;20037;-75
2023/12/30 04:34:02;;;;;;;1999.90;999.90;;;6.20;84.40;;;;;;5053742;28;20021;-76
2023/12/30 04:36:28;;;;;;;1999.90;999.90;;;6.30;83.90;;;;;;5047838;28;20672;-76
2023/12/30 04:38:53;;;;;;;1999.90;999.90;;;6.30;84.20;;;;;;5024852;28;20048;-76
2023/12/30 04:41:19;;;;;;;1999.90;999.90;;;6.40;84.30;;;;;;5043985;28;20083;-76
2023/12/30 04:43:45;;;;;;;1999.90;999.90;;;6.50;83.80;;;;;;5042423;28;20080;-75
2023/12/30 04:46:11;;;;;;;1999.90;999.90;;;6.50;83.60;;;;;;5044806;28;20539;-77
2023/12/30 04:48:38;;;;;;;1999.90;999.90;;;6.60;84.00;;;;;;5044637;28;20124;-77
2023/12/30 04:51:04;;;;;;;1999.90;999.90;;;6.50;84.60;;;;;;5041228;28;20041;-78
2023/12/30 04:53:33;;;;;;;1999.90;999.90;;;6.40;84.80;;;;;;5043085;28;20037;-77
2023/12/30 04:55:58;;;;;;;1999.90;999.90;;;6.40;85.00;;;;;;5047398;28;20116;-75
2023/12/30 04:58:24;;;;;;;1999.90;999.90;;;6.40;84.90;;;;;;5041375;28;20112;-76
2023/12/30 05:00:50;;;;;;;1999.90;999.90;;;6.40;84.90;;;;;;5046075;28;20039;-75
2023/12/30 05:03:17;;;;;;;1999.90;999.90;;;6.40;85.20;;;;;;5044262;28;20041;-77
2023/12/30 05:05:42;;;;;;;1999.90;999.90;;;6.40;85.40;;;;;;5043946;28;20142;-76
2023/12/30 05:08:08;;;;;;;1999.90;999.90;;;6.40;85.50;;;;;;5057524;28;20052;-75
2023/12/30 05:10:34;;;;;;;1999.90;999.90;;;6.50;85.50;;;;;;5044331;28;20048;-79
2023/12/30 05:13:00;;;;;;;1999.90;999.90;;;6.50;85.70;;;;;;5042514;28;20032;-76
2023/12/30 05:15:29;;;;;;;1999.90;999.90;;;6.50;85.50;;;;;;5043092;28;20031;-77
2023/12/30 05:17:54;;;;;;;1999.90;999.90;;;6.50;85.40;;;;;;5040307;28;20039;-75
2023/12/30 05:20:20;;;;;;;1999.90;999.90;;;6.30;85.80;;;;;;5040474;28;20021;-78
2023/12/30 05:22:45;;;;;;;1999.90;999.90;;;6.30;86.50;;;;;;5043282;28;20033;-77
2023/12/30 05:25:11;;;;;;;1999.90;999.90;;;6.40;86.80;;;;;;5043308;28;20040;-76
2023/12/30 05:27:37;;;;;;;1999.90;999.90;;;6.40;86.60;;;;;;5042796;28;20427;-76
2023/12/30 05:30:08;;;;;;;1999.90;999.90;;;6.30;87.20;;;;;;5042485;28;20171;-76
2023/12/30 05:32:37;;;;;;;1999.90;999.90;;;6.30;87.70;;;;;;5042178;28;20037;-77
2023/12/30 05:35:03;;;;;;;1999.90;999.90;;;6.30;88.10;;;;;;5039450;28;20387;-76
2023/12/30 05:37:28;;;;;;;1999.90;999.90;;;6.30;88.20;;;;;;5044609;28;20050;-77
2023/12/30 05:39:54;;;;;;;1999.90;999.90;;;6.30;88.20;;;;;;5041484;28;20037;-76
2023/12/30 05:42:19;;;;;;;1999.90;999.90;;;6.40;87.80;;;;;;5025393;28;20044;-78
2023/12/30 05:44:47;;;;;;;1999.90;999.90;;;6.40;87.50;;;;;;5041336;28;20055;-75
2023/12/30 05:47:12;;;;;;;1999.90;999.90;;;6.40;87.20;;;;;;5043226;28;20101;-75
2023/12/30 05:49:40;;;;;;;1999.90;999.90;;;6.40;86.90;;;;;;5041017;28;20135;-75
2023/12/30 05:52:07;;;;;;;1999.90;999.90;;;6.40;87.10;;;;;;5041296;28;20037;-75
2023/12/30 05:54:33;;;;;;;1999.90;999.90;;;6.30;87.50;;;;;;5039260;28;20029;-76
2023/12/30 05:57:00;;;;;;;1999.90;999.90;;;6.20;87.80;;;;;;5044025;28;20045;-76
2023/12/30 05:59:26;;;;;;;1999.90;999.90;;;6.20;88.10;;;;;;5044488;28;20029;-76
2023/12/30 06:01:52;;;;;;;1999.90;999.90;;;6.10;88.30;;;;;;5043436;28;20072;-76
2023/12/30 06:04:18;;;;;;;1999.90;999.90;;;6.10;89.00;;;;;;5044162;28;20063;-77
2023/12/30 06:06:44;;;;;;;1999.90;999.90;;;6.00;89.10;;;;;;5038131;28;20045;-78
2023/12/30 06:09:10;;;;;;;1999.90;999.90;;;6.00;88.50;;;;;;5043107;28;20037;-75
2023/12/30 06:11:36;;;;;;;1999.90;999.90;;;6.10;89.00;;;;;;5041213;28;20502;-78
2023/12/30 06:14:01;;;;;;;1999.90;999.90;;;6.00;89.10;;;;;;5042976;28;20040;-77
2023/12/30 06:16:27;;;;;;;1999.90;999.90;;;6.10;89.20;;;;;;5052419;28;20037;-77
2023/12/30 06:18:53;;;;;;;1999.90;999.90;;;6.00;89.50;;;;;;5042676;28;20640;-75
2023/12/30 06:21:20;;;;;;;1999.90;999.90;;;6.00;89.70;;;;;;5043507;28;20028;-77
2023/12/30 06:23:45;;;;;;;1999.90;999.90;;;6.00;89.10;;;;;;5041491;28;20029;-76
2023/12/30 06:26:11;;;;;;;1999.90;999.90;;;6.00;89.40;;;;;;5044721;28;20462;-77
2023/12/30 06:28:36;;;;;;;1999.90;999.90;;;6.00;89.30;;;;;;5040681;28;20567;-77
2023/12/30 06:31:02;;;;;;;1999.90;999.90;;;6.00;89.80;;;;;;5042169;28;20454;-76
2023/12/30 06:33:28;;;;;;;1999.90;999.90;;;5.80;89.70;;;;;;5040319;28;21318;-77
2023/12/30 06:35:56;;;;;;;1999.90;999.90;;;6.00;89.40;;;;;;5040794;28;20048;-76
2023/12/30 06:38:22;;;;;;;1999.90;999.90;;;5.90;89.60;;;;;;5059483;28;20059;-75
2023/12/30 06:40:48;;;;;;;1999.90;999.90;;;5.90;89.80;;;;;;5051078;28;20033;-76
2023/12/30 06:43:17;;;;;;;1999.90;999.90;;;5.90;89.80;;;;;;5040013;28;20033;-75
2023/12/30 06:45:42;;;;;;;1999.90;999.90;;;6.00;89.70;;;;;;5036587;28;20034;-75
2023/12/30 06:48:09;;;;;;;1999.90;999.90;;;5.90;90.00;;;;;;5038876;28;20033;-75
2023/12/30 06:50:35;;;;;;;1999.90;999.90;;;5.80;90.10;;;;;;5039220;28;20534;-75
2023/12/30 06:53:00;;;;;;;1999.90;999.90;;;5.70;90.10;;;;;;5038578;28;20078;-77
2023/12/30 06:55:26;;;;;;;1999.90;999.90;;;5.70;90.30;;;;;;5038514;28;20056;-77
2023/12/30 06:57:53;;;;;;;1999.90;999.90;;;5.80;90.30;;;;;;5040886;28;20120;-76
2023/12/30 07:00:19;;;;;;;1999.90;999.90;;;5.70;90.30;;;;;;5040759;28;20032;-79
2023/12/30 07:02:44;;;;;;;1999.90;999.90;;;5.60;90.40;;;;;;5041544;28;20024;-76
2023/12/30 07:05:11;;;;;;;1999.90;999.90;;;5.60;90.60;;;;;;5042113;28;20029;-77
2023/12/30 07:07:37;;;;;;;1999.90;999.90;;;5.50;90.90;;;;;;5039013;28;20013;-78
2023/12/30 07:10:06;;;;;;;1999.90;999.90;;;5.50;91.20;;;;;;5026249;28;20551;-78
2023/12/30 07:12:32;;;;;;;1999.90;999.90;;;5.50;91.20;;;;;;5040778;28;20029;-76
2023/12/30 07:14:58;;;;;;;1999.90;999.90;;;5.40;91.20;;;;;;5046256;28;20040;-78
2023/12/30 07:17:25;;;;;;;1999.90;999.90;;;5.30;91.40;;;;;;5047257;28;20036;-78
2023/12/30 07:19:51;;;;;;;1999.90;999.90;;;5.40;91.80;;;;;;5041619;28;20490;-77
2023/12/30 07:22:19;;;;;;;1999.90;999.90;;;5.40;91.60;;;;;;5045201;28;20059;-76
2023/12/30 07:24:46;;;;;;;1999.90;999.90;;;5.40;91.70;;;;;;5028824;28;20037;-77
2023/12/30 07:27:12;;;;;;;1999.90;999.90;;;5.40;91.70;;;;;;5046937;28;20722;-76
2023/12/30 07:29:38;;;;;;;1999.90;999.90;;;5.40;91.60;;;;;;5045666;28;20029;-78
2023/12/30 07:32:04;;;;;;;1999.90;999.90;;;5.30;91.90;;;;;;5049586;28;20039;-77
2023/12/30 07:34:29;;;;;;;1999.90;999.90;;;5.40;91.80;;;;;;5044841;28;20041;-78
2023/12/30 07:36:56;;;;;;;1999.90;999.90;;;5.40;91.70;;;;;;5044552;28;20105;-75
2023/12/30 07:39:22;;;;;;;1999.90;999.90;;;5.30;92.00;;;;;;5044067;28;20029;-75
2023/12/30 07:41:48;;;;;;;1999.90;999.90;;;5.50;91.80;;;;;;5044854;28;20132;-78
2023/12/30 07:44:15;;;;;;;1999.90;999.90;;;5.50;91.80;;;;;;5045279;28;20116;-78
2023/12/30 07:46:43;;;;;;;1999.90;999.90;;;5.50;91.80;;;;;;5046001;28;20032;-78
2023/12/30 07:49:10;;;;;;;1999.90;999.90;;;5.50;91.70;;;;;;5059090;28;20123;-74
2023/12/30 07:51:36;;;;;;;1999.90;999.90;;;5.50;91.80;;;;;;5045318;28;20050;-75
2023/12/30 07:54:01;;;;;;;1999.90;999.90;;;5.50;91.80;;;;;;5045404;28;20082;-73
2023/12/30 07:56:30;;;;;;;1999.90;999.90;;;5.40;91.70;;;;;;5046235;28;20029;-73
2023/12/30 07:58:56;;;;;;;1999.90;999.90;;;5.40;91.80;;;;;;5031775;28;20029;-74
2023/12/30 08:01:22;;;;;;;1999.90;999.90;;;5.30;91.80;;;;;;5041914;28;20091;-75
2023/12/30 08:03:47;;;;;;;1999.90;999.90;;;5.30;92.20;;;;;;5043723;28;20037;-72
2023/12/30 08:06:13;;;;;;;1999.90;999.90;;;5.40;92.10;;;;;;5043416;28;20027;-73
2023/12/30 08:08:38;;;;;;;1999.90;999.90;;;5.40;91.80;;;;;;5044760;28;20134;-74
2023/12/30 08:11:04;;;;;;;1999.90;999.90;;;5.30;92.00;;;;;;5041865;28;20518;-75
2023/12/30 08:13:30;;;;;;;1999.90;999.90;;;5.20;91.70;;;;;;5043383;28;20462;-74
2023/12/30 08:15:57;;;;;;;1999.90;999.90;;;5.10;92.00;;;;;;5042954;28;20040;-75
2023/12/30 08:18:22;;;;;;;1999.90;999.90;;;5.10;92.10;;;;;;5044833;28;20029;-73
2023/12/30 08:20:49;;;;;;;1999.90;999.90;;;5.10;92.30;;;;;;5047106;28;20025;-74
2023/12/30 08:23:15;;;;;;;1999.90;999.90;;;5.10;92.40;;;;;;5051514;28;20021;-75
2023/12/30 08:25:40;;;;;;;1999.90;999.90;;;5.10;92.60;;;;;;5048811;28;20104;-75
2023/12/30 08:28:06;;;;;;;1999.90;999.90;;;5.10;92.60;;;;;;5042077;28;20033;-75
2023/12/30 08:30:32;;;;;;;1999.90;999.90;;;5.10;92.70;;;;;;5047154;28;20437;-75
2023/12/30 08:33:03;;;;;;;1999.90;999.90;;;5.10;92.70;;;;;;5040501;28;20033;-74
2023/12/30 08:35:29;;;;;;;1999.90;999.90;;;5.10;92.90;;;;;;5044889;28;20025;-75
2023/12/30 08:37:55;;;;;;;1999.90;999.90;;;5.20;92.80;;;;;;5037051;28;20514;-75
2023/12/30 08:40:20;;;;;;;1999.90;999.90;;;5.30;92.80;;;;;;5043446;28;20036;-76
2023/12/30 08:42:46;;;;;;;1999.90;999.90;;;5.40;92.70;;;;;;5040121;28;20092;-78
2023/12/30 08:45:18;;;;;;;1999.90;999.90;;;5.50;92.30;;;;;;5045673;28;20036;-76
2023/12/30 08:47:45;;;;;;;1999.90;999.90;;;5.50;92.40;;;;;;5038756;28;20013;-76
2023/12/30 08:50:11;;;;;;;1999.90;999.90;;;5.60;92.40;;;;;;5043405;28;20144;-76
2023/12/30 08:52:37;;;;;;;1999.90;999.90;;;5.60;92.10;;;;;;5043148;28;20025;-78
2023/12/30 08:55:09;;;;;;;1999.90;999.90;;;5.70;92.10;;;;;;5042646;28;20478;-77
2023/12/30 08:57:35;;;;;;;1999.90;999.90;;;5.70;91.50;;;;;;5043165;28;20044;-76
2023/12/30 09:00:01;;;;;;;1999.90;999.90;;;5.80;91.60;;;;;;5042112;28;20407;-77
2023/12/30 09:02:27;;;;;;;1999.90;999.90;;;5.80;91.60;;;;;;5043455;28;20489;-78
2023/12/30 09:04:56;;;;;;;1999.90;999.90;;;5.90;91.40;;;;;;5041631;28;20091;-76
2023/12/30 09:07:21;;;;;;;1999.90;999.90;;;6.00;91.50;;;;;;5042399;28;20087;-80
2023/12/30 09:09:47;;;;;;;1999.90;999.90;;;6.10;91.50;;;;;;5057893;28;20025;-77
2023/12/30 09:12:13;;;;;;;1999.90;999.90;;;6.20;91.30;;;;;;5040725;28;20090;-77
2023/12/30 09:14:38;;;;;;;1999.90;999.90;;;6.30;91.10;;;;;;5042860;28;20394;-81
2023/12/30 09:17:05;;;;;;;1999.90;999.90;;;6.30;90.90;;;;;;5039640;28;20035;-78
2023/12/30 09:19:31;;;;;;;1999.90;999.90;;;6.50;90.40;;;;;;5039613;28;20083;-78
2023/12/30 09:21:56;;;;;;;1999.90;999.90;;;6.60;90.20;;;;;;5056455;28;20489;-79
2023/12/30 09:24:22;;;;;;;1999.90;999.90;;;6.70;90.10;;;;;;5041124;28;20037;-76
2023/12/30 09:26:48;;;;;;;1999.90;999.90;;;6.90;90.00;;;;;;5047295;28;20364;-75
2023/12/30 09:29:13;;;;;;;1999.90;999.90;;;7.00;87.70;;;;;;5042983;28;20037;-78
2023/12/30 09:31:39;;;;;;;1999.90;999.90;;;7.20;87.10;;;;;;5048302;28;20025;-77
2023/12/30 09:34:05;;;;;;;1999.90;999.90;;;7.40;86.00;;;;;;5044052;28;20051;-79
2023/12/30 09:36:31;;;;;;;1999.90;999.90;;;7.50;85.60;;;;;;5061607;28;20025;-77
2023/12/30 09:38:56;;;;;;;1999.90;999.90;;;7.50;85.50;;;;;;5042754;28;20037;-77
2023/12/30 09:41:25;;;;;;;1999.90;999.90;;;7.60;84.90;;;;;;5046399;28;20037;-78
2023/12/30 09:43:54;;;;;;;1999.90;999.90;;;7.70;84.40;;;;;;5048059;28;20039;-81
2023/12/30 09:46:21;;;;;;;1999.90;999.90;;;7.70;83.90;;;;;;5049952;28;20025;-81
2023/12/30 09:48:50;;;;;;;1999.90;999.90;;;7.90;83.30;;;;;;5043881;28;20028;-84
2023/12/30 09:51:16;;;;;;;1999.90;999.90;;;7.80;83.30;;;;;;5042214;28;20128;-81
2023/12/30 09:53:42;;;;;;;1999.90;999.90;;;7.80;83.40;;;;;;5053322;28;20033;-79
2023/12/30 09:56:08;;;;;;;1999.90;999.90;;;7.90;83.60;;;;;;5051623;28;20029;-78
2023/12/30 09:58:35;;;;;;;1999.90;999.90;;;8.00;82.90;;;;;;5055868;28;20048;-79
2023/12/30 10:01:01;;;;;;;1999.90;999.90;;;8.10;82.70;;;;;;5043734;28;20543;-80
2023/12/30 10:03:28;;;;;;;1999.90;999.90;;;8.20;82.40;;;;;;5032622;28;20041;-76
2023/12/30 10:05:59;;;;;;;1999.90;999.90;;;8.20;82.10;;;;;;5051359;28;20028;-79
2023/12/30 10:08:27;;;;;;;1999.90;999.90;;;8.20;82.00;;;;;;5045429;28;20079;-79
2023/12/30 10:10:53;;;;;;;1999.90;999.90;;;8.20;82.00;;;;;;5045575;28;20032;-80
2023/12/30 10:13:22;;;;;;;1999.90;999.90;;;8.20;81.00;;;;;;5044835;28;20086;-80
2023/12/30 10:15:49;;;;;;;1999.90;999.90;;;8.20;80.80;;;;;;5045781;28;20155;-79
2023/12/30 10:18:15;;;;;;;1999.90;999.90;;;8.20;81.50;;;;;;5045562;28;20024;-79
2023/12/30 10:20:45;;;;;;;1999.90;999.90;;;8.20;81.50;;;;;;5044834;28;20029;-77
2023/12/30 10:23:11;;;;;;;1999.90;999.90;;;8.30;81.40;;;;;;5037256;28;20029;-77
2023/12/30 10:25:39;;;;;;;1999.90;999.90;;;8.40;81.40;;;;;;5039222;28;20085;-77
2023/12/30 10:28:05;;;;;;;1999.90;999.90;;;8.40;81.10;;;;;;5042401;28;20029;-80
2023/12/30 10:30:32;;;;;;;1999.90;999.90;;;8.40;80.40;;;;;;5043218;28;20087;-79
2023/12/30 10:33:24;;;;;;;1999.90;999.90;;;8.40;80.10;;;;;;5043478;28;20643;-77
2023/12/30 10:35:50;;;;;;;1999.90;999.90;;;8.40;79.90;;;;;;5039135;28;20049;-78
2023/12/30 10:38:17;;;;;;;1999.90;999.90;;;8.40;80.30;;;;;;5038919;28;20051;-79
2023/12/30 10:40:44;;;;;;;1999.90;999.90;;;8.50;80.30;;;;;;5042478;28;20041;-78
2023/12/30 10:43:10;;;;;;;1999.90;999.90;;;8.60;80.30;;;;;;5038998;28;20025;-79
2023/12/30 10:45:36;;;;;;;1999.90;999.90;;;8.70;79.20;;;;;;5041656;28;20047;-82
2023/12/30 10:48:05;;;;;;;1999.90;999.90;;;8.80;78.50;;;;;;5045366;28;20110;-80
2023/12/30 10:50:32;;;;;;;1999.90;999.90;;;8.80;78.20;;;;;;5029373;28;20075;-80
2023/12/30 10:53:02;;;;;;;1999.90;999.90;;;8.90;78.20;;;;;;5042957;28;20060;-79
2023/12/30 10:55:32;;;;;;;1999.90;999.90;;;8.80;78.00;;;;;;5044963;28;20095;-77
2023/12/30 10:58:02;;;;;;;;;;;8.90;77.20;;;;;;5045989;28;20033;-81
2023/12/30 11:00:31;;;;;;;1999.90;999.90;;;9.10;77.00;;;;;;5044976;28;19924;-80
2023/12/30 11:02:56;;;;;;;1999.90;999.90;;;9.20;75.50;;;;;;5045114;28;20291;-80
2023/12/30 11:05:46;;;;;;;1999.90;999.90;;;9.30;75.60;;;;;;5029659;28;20047;-80
2023/12/30 11:08:12;;;;;;;1999.90;999.90;;;9.60;74.90;;;;;;5042614;28;20072;-80
2023/12/30 11:10:38;;;;;;;1999.90;999.90;;;9.80;73.90;;;;;;5044755;28;20890;-83
2023/12/30 11:13:05;;;;;;;1999.90;999.90;;;9.80;73.20;;;;;;5039584;28;20032;-77
2023/12/30 11:15:34;;;;;;;1999.90;999.90;;;9.80;73.00;;;;;;5045614;28;20178;-80
2023/12/30 11:18:01;;;;;;;1999.90;999.90;;;9.70;72.60;;;;;;5040876;28;20037;-78
2023/12/30 11:20:28;;;;;;;1999.90;999.90;;;9.70;72.80;;;;;;5040290;28;20025;-78
2023/12/30 11:22:57;;;;;;;1999.90;999.90;;;9.90;73.10;;;;;;5042147;28;20024;-78
2023/12/30 11:25:40;;;;;;;1999.90;999.90;;;9.70;72.40;;;;;;5042483;28;20036;-78
2023/12/30 11:28:25;;;;;;;1999.90;999.90;;;10.00;73.60;;;;;;5044828;28;20459;-77
2023/12/30 11:31:00;;;;;;;1999.90;999.90;;;10.00;71.20;;;;;;5047210;28;20065;-78
2023/12/30 11:33:26;;;;;;;1999.90;999.90;;;10.20;70.40;;;;;;5044000;28;20597;-78
2023/12/30 11:35:54;;;;;;;1999.90;999.90;;;10.20;70.60;;;;;;5046705;28;20116;-79
2023/12/30 11:38:20;;;;;;;1999.90;999.90;;;10.30;71.00;;;;;;5053476;28;20093;-76
2023/12/30 11:40:54;;;;;;;1999.90;999.90;;;10.40;69.90;;;;;;5029044;28;20040;-76
2023/12/30 11:43:21;;;;;;;1999.90;999.90;;;10.40;70.20;;;;;;5043771;28;20025;-78
2023/12/30 11:45:48;;;;;;;1999.90;999.90;;;10.10;69.80;;;;;;5041973;28;20084;-77
2023/12/30 11:48:14;;;;;;;1999.90;999.90;;;10.00;69.60;;;;;;5042561;28;20032;-79
2023/12/30 11:50:40;;;;;;;1999.90;999.90;;;10.00;70.30;;;;;;5044577;28;20056;-77
2023/12/30 11:53:07;;;;;;;1999.90;999.90;;;9.90;71.00;;;;;;5046931;28;20033;-78
2023/12/30 11:55:33;;;;;;;1999.90;999.90;;;9.90;70.50;;;;;;5044947;28;20128;-78
2023/12/30 11:57:58;;;;;;;1999.90;999.90;;;10.00;70.80;;;;;;5039129;28;20833;-77
2023/12/30 12:00:27;;;;;;;1999.90;999.90;;;10.00;69.70;;;;;;5032953;28;20033;-76
2023/12/30 12:02:54;;;;;;;1999.90;999.90;;;10.20;70.10;;;;;;5061669;28;20461;-77
2023/12/30 12:05:20;;;;;;;1999.90;999.90;;;10.20;69.40;;;;;;5034782;28;20036;-77
2023/12/30 12:07:46;;;;;;;1999.90;999.90;;;10.40;69.30;;;;;;5036256;28;20033;-77